TimeAKDT,TemperatureF,Dew PointF,Humidity,Sea Level PressureIn,VisibilityMPH,Wind Direction,Wind SpeedMPH,Gust SpeedMPH,PrecipitationIn,Events,Conditions,WindDirDegrees,DateUTC
12:54 AM,46.9,45.0,93,29.21,10.0,WNW,10.4,-,N/A,,Overcast,300,2013-09-30 08:54:00
1:54 AM,46.9,45.0,93,29.22,10.0,WNW,10.4,-,N/A,,Overcast,300,2013-09-30 09:54:00
2:54 AM,46.9,45.0,93,29.24,10.0,WNW,10.4,-,N/A,,Overcast,290,2013-09-30 10:54:00
3:54 AM,46.0,44.1,93,29.25,10.0,WNW,9.2,-,N/A,,Overcast,290,2013-09-30 11:54:00
4:54 AM,46.0,44.1,93,29.26,10.0,WNW,8.1,-,N/A,,Partly Cloudy,290,2013-09-30 12:54:00
5:54 AM,46.0,43.0,89,29.28,10.0,WNW,10.4,-,N/A,,Mostly Cloudy,290,2013-09-30 13:54:00
6:54 AM,45.0,42.1,90,29.30,10.0,WNW,9.2,-,N/A,,Partly Cloudy,300,2013-09-30 14:54:00
7:54 AM,45.0,43.0,93,29.31,10.0,WNW,10.4,-,N/A,,Overcast,290,2013-09-30 15:54:00
8:54 AM,46.9,44.1,90,29.34,10.0,West,8.1,-,N/A,,Overcast,280,2013-09-30 16:54:00
9:54 AM,50.0,43.0,77,29.36,10.0,WNW,8.1,-,N/A,,Overcast,290,2013-09-30 17:54:00
10:54 AM,54.0,42.1,64,29.37,10.0,WNW,11.5,-,N/A,,Mostly Cloudy,290,2013-09-30 18:54:00
11:54 AM,55.0,43.0,64,29.38,10.0,WNW,12.7,-,N/A,,Clear,300,2013-09-30 19:54:00
12:54 PM,55.0,42.1,62,29.40,10.0,WNW,10.4,-,N/A,,Scattered Clouds,290,2013-09-30 20:54:00
1:54 PM,53.1,46.0,77,29.42,10.0,WNW,6.9,-,0.01,Rain,Light Rain,290,2013-09-30 21:54:00
2:54 PM,55.0,43.0,64,29.42,10.0,NNW,4.6,-,0.00,Rain,Light Rain,330,2013-09-30 22:54:00
3:54 PM,53.1,48.9,86,29.43,10.0,Calm,Calm,-,0.00,,Partly Cloudy,0,2013-09-30 23:54:00
4:54 PM,55.0,41.0,59,29.43,10.0,WNW,9.2,-,N/A,,Partly Cloudy,300,2013-10-01 00:54:00
5:54 PM,51.1,43.0,74,29.44,10.0,NW,6.9,-,N/A,,Overcast,310,2013-10-01 01:54:00
6:54 PM,50.0,43.0,77,29.46,10.0,NW,6.9,-,N/A,,Overcast,310,2013-10-01 02:54:00
7:54 PM,51.1,43.0,74,29.47,10.0,NW,11.5,-,N/A,,Overcast,310,2013-10-01 03:54:00
8:54 PM,50.0,43.0,77,29.48,10.0,NW,10.4,-,N/A,,Overcast,310,2013-10-01 04:54:00
9:54 PM,52.0,43.0,71,29.49,10.0,NW,6.9,-,N/A,,Overcast,310,2013-10-01 05:54:00
10:54 PM,52.0,43.0,71,29.50,10.0,NW,9.2,-,N/A,,Overcast,310,2013-10-01 06:54:00
11:54 PM,48.9,44.1,83,29.51,10.0,WNW,12.7,-,N/A,,Scattered Clouds,290,2013-10-01 07:54:00